M I D A S
Marine Information and Data Acquisition System
Tripno 2172 of the Zeeleeuw from 2011-08-26 05:31:22 to 2011-08-26 13:25:08
Back to CruiseResearch ActivitiesStationsMapUnderway DataData graphs

EquipmentUnitsComment
TimeDGPSUTC
LatitudeDGPSDM.mWGS84
LongitudeDGPSDM.mWGS84
HeadingGyrodeg 
SOGDGPSknotsSpeed over ground
COGDGPSdegCourse over ground
DepthEcho soundermeters200 kHz
Missing or incorrect values are displayed as -999
Navigation data collected by the RV Zeeleeuw from 2011-08-26 05:18:30 to 2011-08-26 13:36:39
                                                                                    Next 1000 lines
Time Latitude Longitude Heading SOG COG Depth
2011-08-26 05:18:40 51°13.635 2°56.018 126.7 0.2 230 7.1
2011-08-26 05:18:46 51°13.635 2°56.018 127.4 0.1 254 7.1
2011-08-26 05:18:51 51°13.635 2°56.018 128.1 -999 285 7
2011-08-26 05:18:55 51°13.635 2°56.018 128.5 -999 240 7.1
2011-08-26 05:19:00 51°13.635 2°56.018 128.6 -999 70 7.1
2011-08-26 05:19:06 51°13.635 2°56.018 128.7 -999 34 7.1
2011-08-26 05:19:11 51°13.635 2°56.018 128.7 -999 81 7
2011-08-26 05:19:15 51°13.635 2°56.018 128.7 0.1 64 7.1
2011-08-26 05:19:19 51°13.635 2°56.018 128.6 0.1 55 7.1
2011-08-26 05:19:25 51°13.635 2°56.018 128.2 0.1 59 7.1
2011-08-26 05:19:30 51°13.635 2°56.018 128 -999 80 7.1
2011-08-26 05:19:35 51°13.635 2°56.018 127.7 -999 52 7.1
2011-08-26 05:19:40 51°13.635 2°56.018 127.5 -999 54 7.1
2011-08-26 05:19:45 51°13.635 2°56.018 127.3 -999 278 7.1
2011-08-26 05:19:51 51°13.635 2°56.017 127.3 -999 257 7.1
2011-08-26 05:19:55 51°13.635 2°56.017 127.3 -999 218 7.1
2011-08-26 05:20:00 51°13.635 2°56.017 127.4 -999 34 7
2011-08-26 05:20:06 51°13.636 2°56.017 127.5 0.1 46 7.1
2011-08-26 05:20:11 51°13.636 2°56.017 127.5 0.1 77 7
2011-08-26 05:20:15 51°13.636 2°56.018 126.9 0.1 65 7
2011-08-26 05:20:19 51°13.636 2°56.018 125.5 0.1 166 7
2011-08-26 05:20:25 51°13.636 2°56.018 124 -999 171 7.1
2011-08-26 05:20:31 51°13.636 2°56.018 122.7 -999 284 7
2011-08-26 05:20:35 51°13.635 2°56.018 122 0.1 208 7
2011-08-26 05:20:40 51°13.635 2°56.018 121.2 0.1 148 7
2011-08-26 05:20:46 51°13.635 2°56.018 120.5 0.1 196 7
2011-08-26 05:20:51 51°13.635 2°56.018 119.5 0.1 203 7
2011-08-26 05:20:55 51°13.635 2°56.018 118.5 0.1 197 7.1
2011-08-26 05:21:00 51°13.635 2°56.018 117.7 -999 187 7.1
2011-08-26 05:21:06 51°13.635 2°56.018 116.8 0.1 185 7
2011-08-26 05:21:11 51°13.635 2°56.018 116 0.1 182 7
2011-08-26 05:21:15 51°13.635 2°56.018 114.8 0.1 193 7
2011-08-26 05:21:19 51°13.635 2°56.018 114 0.1 197 7
2011-08-26 05:21:25 51°13.635 2°56.018 112.8 0.1 188 7.1
2011-08-26 05:21:30 51°13.635 2°56.018 111.3 0.1 193 7
2011-08-26 05:21:35 51°13.634 2°56.018 110.2 0.1 198 7
2011-08-26 05:21:40 51°13.634 2°56.018 108.7 0.1 206 7
2011-08-26 05:21:45 51°13.634 2°56.018 107.7 0.1 223 7.1
2011-08-26 05:21:51 51°13.634 2°56.017 106.6 0.2 278 7.1
2011-08-26 05:21:55 51°13.634 2°56.016 105.7 0.6 284 7
2011-08-26 05:22:00 51°13.635 2°56.014 105.3 1.2 284 6.9
2011-08-26 05:22:06 51°13.635 2°56.009 105.3 1.8 288 7.2
2011-08-26 05:22:11 51°13.636 2°56.005 106 2.2 288 7.3
2011-08-26 05:22:15 51°13.637 2°56 106.6 2.7 287 -999
2011-08-26 05:22:21 51°13.639 2°55.992 106.9 3.4 291 -999
2011-08-26 05:22:27 51°13.641 2°55.982 107.6 3.9 290 -999
2011-08-26 05:22:32 51°13.644 2°55.974 108.7 4.4 291 -999
2011-08-26 05:22:38 51°13.646 2°55.962 109 4.8 290 -999
2011-08-26 05:22:44 51°13.649 2°55.949 108.4 5.1 290 -999
2011-08-26 05:22:49 51°13.651 2°55.938 107.6 5.1 289 -999
2011-08-26 05:22:54 51°13.653 2°55.928 106.6 4.9 286 -999
2011-08-26 05:22:59 51°13.655 2°55.918 105.7 4.8 287 -999
2011-08-26 05:23:04 51°13.657 2°55.908 105.4 4.6 285 -999
2011-08-26 05:23:09 51°13.659 2°55.898 105.4 4.5 286 -999
2011-08-26 05:23:14 51°13.66 2°55.889 105.6 4.4 286 -999
2011-08-26 05:23:19 51°13.662 2°55.88 106.5 4.3 286 -999
2011-08-26 05:23:24 51°13.664 2°55.871 107.5 4.2 288 -999
2011-08-26 05:23:29 51°13.666 2°55.862 109 4.2 288 -999
2011-08-26 05:23:34 51°13.668 2°55.854 110.8 4.2 290 -999
2011-08-26 05:23:39 51°13.67 2°55.845 113.1 4.2 291 -999
2011-08-26 05:23:44 51°13.672 2°55.836 115.5 4.2 293 -999
2011-08-26 05:23:49 51°13.674 2°55.828 118.2 4.3 295 -999
2011-08-26 05:23:54 51°13.677 2°55.819 121.1 4.5 299 -999
2011-08-26 05:23:59 51°13.681 2°55.81 124.4 4.7 301 -999
2011-08-26 05:24:04 51°13.685 2°55.802 127.2 4.8 305 -999
2011-08-26 05:24:09 51°13.689 2°55.793 129.4 4.8 307 -999
2011-08-26 05:24:14 51°13.693 2°55.785 132.2 4.9 310 -999
2011-08-26 05:24:19 51°13.698 2°55.777 134.6 4.9 313 -999
2011-08-26 05:24:24 51°13.703 2°55.769 136.7 5 315 -999
2011-08-26 05:24:29 51°13.708 2°55.761 138.3 4.9 317 -999
2011-08-26 05:24:34 51°13.713 2°55.754 140.7 4.8 318 -999
2011-08-26 05:24:39 51°13.718 2°55.748 142.6 4.9 321 -999
2011-08-26 05:24:44 51°13.723 2°55.741 144.3 5.1 322 -999
2011-08-26 05:24:49 51°13.729 2°55.734 145.4 5.2 324 -999
2011-08-26 05:24:54 51°13.735 2°55.727 147 5.4 326 -999
2011-08-26 05:24:59 51°13.741 2°55.721 148.2 5.2 327 -999
2011-08-26 05:25:04 51°13.747 2°55.715 149.3 5 328 -999
2011-08-26 05:25:09 51°13.753 2°55.709 150.1 4.9 328 -999
2011-08-26 05:25:14 51°13.759 2°55.704 150.8 4.9 329 -999
2011-08-26 05:25:19 51°13.764 2°55.698 151.7 4.8 330 -999
2011-08-26 05:25:23 51°13.769 2°55.694 152.5 4.9 331 -999
2011-08-26 05:25:29 51°13.776 2°55.688 153.4 4.9 332 -999
2011-08-26 05:25:34 51°13.782 2°55.683 155 4.9 334 -999
2011-08-26 05:25:39 51°13.789 2°55.679 156.2 5 335 -999
2011-08-26 05:25:44 51°13.795 2°55.674 157.6 5 337 -999
2011-08-26 05:25:49 51°13.802 2°55.67 158.3 5 338 -999
2011-08-26 05:25:54 51°13.808 2°55.666 159.2 5 339 -999
2011-08-26 05:25:59 51°13.815 2°55.662 159.8 4.9 340 -999
2011-08-26 05:26:04 51°13.821 2°55.659 160 4.9 340 -999
2011-08-26 05:26:09 51°13.827 2°55.655 160.2 4.9 342 -999
2011-08-26 05:26:14 51°13.834 2°55.652 160.9 4.9 341 -999
2011-08-26 05:26:19 51°13.84 2°55.648 161.4 4.9 342 -999
2011-08-26 05:26:24 51°13.847 2°55.645 161.8 4.8 342 -999
2011-08-26 05:26:29 51°13.853 2°55.642 162.2 4.7 343 -999
2011-08-26 05:26:34 51°13.859 2°55.639 163.5 4.6 343 -999
2011-08-26 05:26:39 51°13.865 2°55.636 164.8 4.6 344 -999
2011-08-26 05:26:44 51°13.871 2°55.634 166.3 4.5 345 -999
2011-08-26 05:26:49 51°13.877 2°55.631 167.6 4.5 347 -999
2011-08-26 05:26:54 51°13.883 2°55.629 169.5 4.4 348 -999
2011-08-26 05:26:59 51°13.889 2°55.628 172.1 4.3 349 -999
2011-08-26 05:27:04 51°13.895 2°55.626 174.6 4.3 351 -999
2011-08-26 05:27:09 51°13.9 2°55.625 176.8 4.2 353 -999
2011-08-26 05:27:14 51°13.906 2°55.625 179.8 4 356 -999
2011-08-26 05:27:19 51°13.911 2°55.624 183.5 3.8 358 -999
2011-08-26 05:27:24 51°13.917 2°55.624 186.4 3.8 -999 -999
2011-08-26 05:27:29 51°13.922 2°55.625 188.8 3.6 4 -999
2011-08-26 05:27:34 51°13.926 2°55.625 192.8 3.4 5 -999
2011-08-26 05:27:39 51°13.93 2°55.626 195.8 3.2 8 -999
2011-08-26 05:27:44 51°13.935 2°55.627 197.9 3.1 8 -999
2011-08-26 05:27:49 51°13.939 2°55.629 200.4 2.9 11 -999
2011-08-26 05:27:54 51°13.942 2°55.63 203.3 2.8 13 -999
2011-08-26 05:27:59 51°13.946 2°55.632 205.5 2.6 16 11.7
2011-08-26 05:28:03 51°13.949 2°55.633 206.7 2.5 16 11.9
2011-08-26 05:28:08 51°13.952 2°55.635 208.1 2.3 17 11.6
2011-08-26 05:28:14 51°13.955 2°55.636 209.7 2 18 11.6
2011-08-26 05:28:18 51°13.957 2°55.637 211.6 1.6 16 11.5
2011-08-26 05:28:23 51°13.959 2°55.638 214 1.3 13 11.7
2011-08-26 05:28:28 51°13.96 2°55.638 216.6 0.9 10 11.6
2011-08-26 05:28:33 51°13.961 2°55.638 219.8 0.7 353 11.6
2011-08-26 05:28:38 51°13.961 2°55.638 223.5 0.5 331 11.7
2011-08-26 05:28:43 51°13.962 2°55.636 227.5 0.6 295 11.7
2011-08-26 05:28:47 51°13.962 2°55.635 231.9 0.9 273 11.7
2011-08-26 05:28:52 51°13.962 2°55.632 236.9 1.3 266 -999
2011-08-26 05:28:58 51°13.962 2°55.628 242.8 1.6 265 11.7
2011-08-26 05:29:03 51°13.961 2°55.624 249.2 2 266 11.7
2011-08-26 05:29:07 51°13.961 2°55.62 255.6 2.2 269 11.6
2011-08-26 05:29:12 51°13.961 2°55.615 262.2 2.5 274 11.5
2011-08-26 05:29:17 51°13.962 2°55.609 268.7 2.6 280 11.4
2011-08-26 05:29:22 51°13.963 2°55.603 274.9 2.8 284 11.2
2011-08-26 05:29:27 51°13.965 2°55.597 281 3 290 11
2011-08-26 05:29:31 51°13.966 2°55.592 286.8 3.1 292 10.8
2011-08-26 05:29:36 51°13.968 2°55.585 292.8 3.3 300 11.3
2011-08-26 05:29:41 51°13.971 2°55.579 298.8 3.5 305 11.5
2011-08-26 05:29:46 51°13.974 2°55.572 304.9 3.6 311 10.7
2011-08-26 05:29:51 51°13.978 2°55.566 311.5 3.9 316 10.9
2011-08-26 05:29:55 51°13.981 2°55.562 318.4 4.2 322 10.9
2011-08-26 05:30:00 51°13.986 2°55.556 323.6 4.5 324 11
2011-08-26 05:30:05 51°13.992 2°55.55 326.7 5.1 328 11
2011-08-26 05:30:10 51°13.998 2°55.544 328.9 5.7 329 10.9
2011-08-26 05:30:15 51°14.005 2°55.536 329.4 6.1 328 10.9
2011-08-26 05:30:20 51°14.013 2°55.529 329.9 6.7 329 -999
2011-08-26 05:30:26 51°14.024 2°55.52 330.3 7.2 330 11.5
2011-08-26 05:30:31 51°14.034 2°55.512 329.9 7.6 328 11
2011-08-26 05:30:35 51°14.041 2°55.505 330 7.9 330 11.1
2011-08-26 05:30:41 51°14.053 2°55.494 330 8.3 329 11.1
2011-08-26 05:30:46 51°14.063 2°55.483 328.5 8.6 328 11
2011-08-26 05:30:51 51°14.074 2°55.473 329 8.8 330 11.1
2011-08-26 05:30:56 51°14.085 2°55.463 329.9 9 330 11.1
2011-08-26 05:31:02 51°14.097 2°55.451 329.9 9.2 329 11
2011-08-26 05:31:07 51°14.109 2°55.441 330.2 9.2 331 11.1
2011-08-26 05:31:12 51°14.12 2°55.43 330.9 9.4 330 11
2011-08-26 05:31:16 51°14.129 2°55.422 330.9 9.5 330 11
2011-08-26 05:31:21 51°14.141 2°55.411 330.2 9.6 329 11
2011-08-26 05:31:26 51°14.152 2°55.4 330 9.7 330 10.9
2011-08-26 05:31:31 51°14.164 2°55.39 330.7 9.8 331 10.9
2011-08-26 05:31:36 51°14.176 2°55.378 330.4 9.8 329 10.9
2011-08-26 05:31:41 51°14.187 2°55.367 329.6 9.9 329 11
2011-08-26 05:31:46 51°14.199 2°55.356 330 9.9 330 11
2011-08-26 05:31:51 51°14.211 2°55.344 330.3 10 330 11
2011-08-26 05:31:56 51°14.223 2°55.332 329.7 10.1 328 11
2011-08-26 05:32:01 51°14.235 2°55.321 329.6 10.2 330 10.9
2011-08-26 05:32:06 51°14.248 2°55.31 330.3 10.3 330 10.9
2011-08-26 05:32:11 51°14.26 2°55.298 330.1 10.4 329 10.9
2011-08-26 05:32:16 51°14.273 2°55.286 329.8 10.5 329 10.9
2011-08-26 05:32:21 51°14.285 2°55.274 329.6 10.7 329 10.9
2011-08-26 05:32:26 51°14.298 2°55.261 328.9 10.8 328 -999
2011-08-26 05:32:32 51°14.313 2°55.245 328.2 10.9 327 10.9
2011-08-26 05:32:37 51°14.326 2°55.232 328.1 11 328 -999
2011-08-26 05:32:42 51°14.339 2°55.219 328.3 11.1 327 -999
2011-08-26 05:32:47 51°14.352 2°55.205 327.4 11.2 327 -999
2011-08-26 05:32:52 51°14.365 2°55.192 327.3 11.2 327 10.4
2011-08-26 05:32:57 51°14.378 2°55.178 327.6 11.2 327 10.5
2011-08-26 05:33:03 51°14.394 2°55.163 328.7 11.3 329 -999
2011-08-26 05:33:08 51°14.407 2°55.149 328.8 11.3 324 -999
2011-08-26 05:33:13 51°14.42 2°55.134 325.8 11.4 324 10.9
2011-08-26 05:33:18 51°14.433 2°55.118 324.5 11.6 322 10.3
2011-08-26 05:33:23 51°14.445 2°55.102 323.8 11.7 323 10.4
2011-08-26 05:33:28 51°14.458 2°55.085 323.4 11.9 320 10.9
2011-08-26 05:33:32 51°14.468 2°55.071 321.8 12 320 11.2
2011-08-26 05:33:37 51°14.482 2°55.055 321.5 12.2 319 11.2
2011-08-26 05:33:42 51°14.494 2°55.035 319.7 12.3 316 11.1
2011-08-26 05:33:47 51°14.507 2°55.017 318.4 12.4 317 11.2
2011-08-26 05:33:52 51°14.518 2°54.996 317.1 12.5 313 11.1
2011-08-26 05:33:56 51°14.528 2°54.98 315.9 12.6 312 11.3
2011-08-26 05:34:02 51°14.541 2°54.954 315.1 12.8 310 11.5
2011-08-26 05:34:06 51°14.551 2°54.937 314.8 12.8 312 11.4
2011-08-26 05:34:11 51°14.563 2°54.917 317.2 12.7 316 11.4
2011-08-26 05:34:16 51°14.576 2°54.898 320.7 12.7 317 11.4
2011-08-26 05:34:20 51°14.586 2°54.882 321.4 12.8 314 11.3
2011-08-26 05:34:26 51°14.602 2°54.858 320.3 12.9 316 11.4
2011-08-26 05:34:31 51°14.615 2°54.839 320.9 12.8 318 11.3
2011-08-26 05:34:36 51°14.628 2°54.821 323.1 12.8 320 11.3
2011-08-26 05:34:41 51°14.643 2°54.803 325.7 12.8 322 11.2
2011-08-26 05:34:46 51°14.656 2°54.785 326.6 12.9 321 11.3
2011-08-26 05:34:51 51°14.67 2°54.768 327.2 12.9 322 11.3
2011-08-26 05:34:56 51°14.684 2°54.75 326.7 12.9 320 11.1
2011-08-26 05:35:00 51°14.696 2°54.736 326.7 12.8 323 11.1
2011-08-26 05:35:06 51°14.713 2°54.716 328 12.8 323 11
2011-08-26 05:35:11 51°14.727 2°54.698 328.6 12.8 323 11
2011-08-26 05:35:16 51°14.741 2°54.681 328.6 12.8 323 11
2011-08-26 05:35:21 51°14.755 2°54.665 328.9 12.7 325 11.1
2011-08-26 05:35:26 51°14.77 2°54.65 330.2 12.7 327 11.1
2011-08-26 05:35:31 51°14.785 2°54.635 332.9 12.7 329 11.4
2011-08-26 05:35:36 51°14.8 2°54.622 335.2 12.6 331 11.4
2011-08-26 05:35:40 51°14.812 2°54.611 335.8 12.6 330 11.6
2011-08-26 05:35:46 51°14.83 2°54.593 335.4 12.6 330 11.3
2011-08-26 05:35:51 51°14.845 2°54.579 334.4 12.7 328 11.5
2011-08-26 05:35:56 51°14.861 2°54.564 334.3 12.7 330 11.9
2011-08-26 05:36:00 51°14.872 2°54.552 333.2 12.8 326 11.8
2011-08-26 05:36:06 51°14.89 2°54.534 332.4 12.7 328 11.9
2011-08-26 05:36:11 51°14.905 2°54.519 332.7 12.7 328 11.9
2011-08-26 05:36:16 51°14.92 2°54.505 333.2 12.7 329 11.8
2011-08-26 05:36:21 51°14.935 2°54.49 333.3 12.6 329 11.9
2011-08-26 05:36:26 51°14.95 2°54.476 334.1 12.6 330 11.8
2011-08-26 05:36:31 51°14.964 2°54.461 333.5 12.5 326 11.7
2011-08-26 05:36:36 51°14.979 2°54.445 331.5 12.5 324 11.5
2011-08-26 05:36:40 51°14.989 2°54.431 327 12.6 321 11.5
2011-08-26 05:36:46 51°15.005 2°54.409 324.9 12.6 321 11.5
2011-08-26 05:36:51 51°15.018 2°54.39 323.3 12.6 317 11.4
2011-08-26 05:36:56 51°15.032 2°54.372 322.4 12.6 320 11.4
2011-08-26 05:37:00 51°15.042 2°54.357 322.2 12.6 317 11.5
2011-08-26 05:37:06 51°15.057 2°54.335 321.5 12.5 318 11.3
2011-08-26 05:37:11 51°15.07 2°54.315 320.7 12.6 315 11.3
2011-08-26 05:37:16 51°15.081 2°54.294 318.8 12.6 313 11.2
2011-08-26 05:37:20 51°15.091 2°54.278 317.5 12.6 313 11
2011-08-26 05:37:26 51°15.105 2°54.253 317.1 12.6 313 11.1
2011-08-26 05:37:31 51°15.118 2°54.233 317.1 12.6 314 11
2011-08-26 05:37:36 51°15.13 2°54.213 318 12.6 314 10.8
2011-08-26 05:37:40 51°15.14 2°54.198 318.8 12.5 315 10.5
2011-08-26 05:37:46 51°15.154 2°54.174 319 12.6 314 10
2011-08-26 05:37:51 51°15.167 2°54.156 320.3 12.4 318 9.3
2011-08-26 05:37:56 51°15.18 2°54.137 322.4 12.4 317 9.3
2011-08-26 05:38:00 51°15.19 2°54.122 323 12.4 318 9.3
2011-08-26 05:38:06 51°15.206 2°54.101 323.1 12.4 319 9.3
2011-08-26 05:38:11 51°15.219 2°54.083 324.8 12.4 321 9.6
2011-08-26 05:38:16 51°15.233 2°54.067 326.8 12.4 323 9.5
2011-08-26 05:38:21 51°15.246 2°54.05 328.3 12.4 323 9.5
2011-08-26 05:38:26 51°15.26 2°54.033 328.5 12.4 322 9.6
2011-08-26 05:38:31 51°15.274 2°54.016 328 12.5 321 9.6
2011-08-26 05:38:36 51°15.287 2°53.998 327.1 12.5 320 9.8
2011-08-26 05:38:40 51°15.297 2°53.984 325.2 12.6 318 9.8
2011-08-26 05:38:46 51°15.313 2°53.962 324.2 12.6 319 9.8
2011-08-26 05:38:51 51°15.326 2°53.943 323.5 12.6 317 9.6
2011-08-26 05:38:56 51°15.339 2°53.924 322.5 12.6 317 9.7
2011-08-26 05:39:01 51°15.351 2°53.905 322.4 12.6 317 9.7
2011-08-26 05:39:06 51°15.364 2°53.886 323 12.5 319 9.8
2011-08-26 05:39:11 51°15.377 2°53.868 323.8 12.6 318 9.7
2011-08-26 05:39:16 51°15.39 2°53.85 324.2 12.6 319 9.7
2011-08-26 05:39:20 51°15.401 2°53.835 324.8 12.5 320 9.8
2011-08-26 05:39:26 51°15.417 2°53.814 325.6 12.6 321 10.1
2011-08-26 05:39:31 51°15.431 2°53.798 327.3 12.5 323 10
2011-08-26 05:39:36 51°15.445 2°53.782 329 12.5 325 10
2011-08-26 05:39:40 51°15.457 2°53.769 330.3 12.6 325 10.1
2011-08-26 05:39:46 51°15.474 2°53.75 331 12.5 326 10.4
2011-08-26 05:39:51 51°15.488 2°53.735 331.1 12.6 326 10.4
2011-08-26 05:39:56 51°15.503 2°53.72 331.6 12.5 327 10.4
2011-08-26 05:40:00 51°15.515 2°53.707 332.2 12.6 326 10.6
2011-08-26 05:40:06 51°15.532 2°53.689 332.1 12.6 326 10.5
2011-08-26 05:40:11 51°15.546 2°53.673 332 12.6 325 10.6
2011-08-26 05:40:16 51°15.561 2°53.657 331.6 12.6 326 10.7
2011-08-26 05:40:21 51°15.575 2°53.642 331.7 12.6 326 10.9
2011-08-26 05:40:26 51°15.59 2°53.627 332 12.5 327 10.8
2011-08-26 05:40:31 51°15.604 2°53.612 332.7 12.5 327 10.9
2011-08-26 05:40:36 51°15.619 2°53.596 332.7 12.6 326 11
2011-08-26 05:40:40 51°15.63 2°53.583 331.5 12.6 324 10.9
2011-08-26 05:40:46 51°15.647 2°53.564 330.7 12.6 324 11.1
2011-08-26 05:40:51 51°15.661 2°53.547 330.1 12.6 323 11
2011-08-26 05:40:56 51°15.674 2°53.529 328.9 12.6 321 11
2011-08-26 05:41:00 51°15.685 2°53.515 327.4 12.6 322 11.1
2011-08-26 05:41:06 51°15.702 2°53.495 327.8 12.6 322 11.2
2011-08-26 05:41:11 51°15.715 2°53.477 327.5 12.6 322 11.3
2011-08-26 05:41:16 51°15.729 2°53.461 328.4 12.6 324 11.3
2011-08-26 05:41:20 51°15.741 2°53.448 329.5 12.5 324 11.2
2011-08-26 05:41:26 51°15.758 2°53.428 330.2 12.5 325 11.4
2011-08-26 05:41:31 51°15.773 2°53.415 332.4 12.4 330 11.9
2011-08-26 05:41:36 51°15.787 2°53.401 335.3 12.4 330 11.9
2011-08-26 05:41:40 51°15.799 2°53.39 336.3 12.4 330 11
2011-08-26 05:41:46 51°15.817 2°53.374 337.3 12.4 332 11.3
2011-08-26 05:41:51 51°15.832 2°53.361 337.8 12.5 331 11.8
2011-08-26 05:41:56 51°15.848 2°53.348 337.8 12.4 332 12.2
2011-08-26 05:42:00 51°15.86 2°53.338 338.3 12.4 333 12.3
2011-08-26 05:42:06 51°15.879 2°53.323 339.1 12.4 333 12.5
2011-08-26 05:42:11 51°15.894 2°53.312 339.6 12.4 334 12.7
2011-08-26 05:42:16 51°15.91 2°53.301 340.8 12.4 336 12.6
2011-08-26 05:42:20 51°15.923 2°53.292 342.5 12.4 337 12.5
2011-08-26 05:42:26 51°15.942 2°53.28 343.2 12.3 337 11.9
2011-08-26 05:42:31 51°15.958 2°53.27 343.9 12.3 339 12.5
2011-08-26 05:42:36 51°15.974 2°53.26 344.8 12.3 339 12.2
2011-08-26 05:42:40 51°15.987 2°53.252 345.2 12.3 339 12.7
2011-08-26 05:42:46 51°16.006 2°53.241 345.6 12.2 340 12.5
2011-08-26 05:42:51 51°16.022 2°53.232 346.3 12.3 340 11.9
2011-08-26 05:42:56 51°16.038 2°53.223 346.3 12.2 340 12.2
2011-08-26 05:43:00 51°16.051 2°53.215 346.2 12.2 340 12.3
2011-08-26 05:43:06 51°16.07 2°53.203 345.2 12.3 337 12.2
2011-08-26 05:43:11 51°16.085 2°53.192 344.4 12.3 338 11.9
2011-08-26 05:43:16 51°16.101 2°53.181 343.6 12.3 336 12.1
2011-08-26 05:43:20 51°16.113 2°53.173 342.7 12.3 336 12.1
2011-08-26 05:43:26 51°16.132 2°53.159 341.9 12.3 335 11.9
2011-08-26 05:43:31 51°16.147 2°53.147 341 12.3 334 12
2011-08-26 05:43:36 51°16.163 2°53.135 340.2 12.4 334 12
2011-08-26 05:43:40 51°16.175 2°53.125 339.6 12.3 333 12.1
2011-08-26 05:43:46 51°16.194 2°53.111 339.6 12.4 334 12
2011-08-26 05:43:51 51°16.209 2°53.099 339.6 12.4 333 12
2011-08-26 05:43:56 51°16.225 2°53.086 339.6 12.4 334 12
2011-08-26 05:44:00 51°16.237 2°53.076 339.8 12.4 334 12
2011-08-26 05:44:06 51°16.255 2°53.062 339.9 12.3 334 12
2011-08-26 05:44:11 51°16.271 2°53.05 340.3 12.4 334 12.2
2011-08-26 05:44:16 51°16.287 2°53.038 340.5 12.4 334 12.1
2011-08-26 05:44:20 51°16.299 2°53.029 340.7 12.4 334 12.1
2011-08-26 05:44:26 51°16.317 2°53.015 340.9 12.4 335 12.2
2011-08-26 05:44:31 51°16.333 2°53.004 341.4 12.4 337 12.1
2011-08-26 05:44:36 51°16.349 2°52.994 343.1 12.3 339 12.2
2011-08-26 05:44:40 51°16.362 2°52.986 344.6 12.2 339 12
2011-08-26 05:44:46 51°16.381 2°52.975 345.2 12.3 340 12.1
2011-08-26 05:44:51 51°16.397 2°52.966 346 12.2 342 12.1
2011-08-26 05:44:56 51°16.413 2°52.957 346.4 12.3 340 12.1
2011-08-26 05:45:00 51°16.426 2°52.95 345.8 12.2 341 12
2011-08-26 05:45:06 51°16.445 2°52.938 345.7 12.3 339 12
2011-08-26 05:45:11 51°16.461 2°52.929 345.6 12.2 340 11.8
2011-08-26 05:45:16 51°16.477 2°52.92 345.5 12.2 340 11.9
2011-08-26 05:45:20 51°16.49 2°52.912 345.4 12.2 340 11.9
2011-08-26 05:45:26 51°16.509 2°52.901 345.3 12.2 339 11.8
2011-08-26 05:45:31 51°16.524 2°52.891 344.6 12.2 339 11.7
2011-08-26 05:45:36 51°16.54 2°52.881 344.5 12.2 339 11.6
2011-08-26 05:45:40 51°16.553 2°52.873 344.3 12.2 339 11.7
2011-08-26 05:45:46 51°16.572 2°52.862 344.3 12.2 340 11.7
2011-08-26 05:45:51 51°16.588 2°52.852 344.5 12.3 340 11.7
2011-08-26 05:45:56 51°16.604 2°52.844 344.8 12.2 340 11.4
2011-08-26 05:46:00 51°16.616 2°52.836 345.3 12.2 340 11.3
2011-08-26 05:46:06 51°16.635 2°52.825 344.6 12.2 338 11.4
2011-08-26 05:46:11 51°16.651 2°52.815 343.7 12.2 338 11.2
2011-08-26 05:46:16 51°16.667 2°52.804 343 12.2 337 11.1
2011-08-26 05:46:20 51°16.679 2°52.796 342 12.2 337 10.9
2011-08-26 05:46:26 51°16.698 2°52.782 341.2 12.2 335 11
2011-08-26 05:46:31 51°16.713 2°52.771 339.9 12.2 335 10.7
2011-08-26 05:46:36 51°16.728 2°52.759 339.8 12.2 335 10.5
2011-08-26 05:46:40 51°16.74 2°52.749 338.7 12.1 334 10.2
2011-08-26 05:46:46 51°16.758 2°52.736 338.7 12.1 335 10
2011-08-26 05:46:51 51°16.773 2°52.725 339.5 12.1 336 9.8
2011-08-26 05:46:56 51°16.789 2°52.715 340.8 12 338 9.8
2011-08-26 05:47:00 51°16.801 2°52.707 342.4 12 339 9.8
2011-08-26 05:47:06 51°16.82 2°52.696 343.7 12 340 9.8
2011-08-26 05:47:11 51°16.836 2°52.688 345 12 342 9.6
2011-08-26 05:47:16 51°16.851 2°52.679 345.7 11.9 340 9.4
2011-08-26 05:47:20 51°16.864 2°52.672 345.7 11.9 342 9.5
2011-08-26 05:47:26 51°16.883 2°52.662 346.3 11.9 341 9.6
2011-08-26 05:47:31 51°16.899 2°52.654 346.4 11.9 342 9.7
2011-08-26 05:47:36 51°16.914 2°52.646 346.5 12 342 9.8
2011-08-26 05:47:40 51°16.927 2°52.639 346.6 12 342 9.9
2011-08-26 05:47:46 51°16.946 2°52.629 347 11.9 342 9.9
2011-08-26 05:47:51 51°16.962 2°52.621 347 12 341 9.9
2011-08-26 05:47:56 51°16.977 2°52.612 346.2 12 341 10
2011-08-26 05:48:00 51°16.99 2°52.606 346.3 12 342 10
2011-08-26 05:48:06 51°17.009 2°52.596 346.7 12 340 9.7
2011-08-26 05:48:11 51°17.025 2°52.587 345.9 11.9 340 9.9
2011-08-26 05:48:16 51°17.04 2°52.578 345.6 11.9 341 9.7
2011-08-26 05:48:20 51°17.053 2°52.571 345.9 11.9 341 9.6
2011-08-26 05:48:26 51°17.071 2°52.561 346.1 11.9 341 9.7
2011-08-26 05:48:31 51°17.087 2°52.552 346.3 11.9 342 9.6
2011-08-26 05:48:36 51°17.103 2°52.545 347.3 11.8 343 9.6
2011-08-26 05:48:40 51°17.115 2°52.538 347.3 11.9 342 9.7
2011-08-26 05:48:46 51°17.134 2°52.53 347.7 11.8 346 9.8
2011-08-26 05:48:50 51°17.147 2°52.526 350.6 11.8 348 9.9
2011-08-26 05:48:56 51°17.166 2°52.52 352.4 11.8 348 9.9
2011-08-26 05:49:00 51°17.179 2°52.516 353.9 11.8 350 9.8
2011-08-26 05:49:06 51°17.198 2°52.511 354.7 11.8 350 10
2011-08-26 05:49:11 51°17.215 2°52.507 355.5 11.8 352 10.1
2011-08-26 05:49:16 51°17.231 2°52.504 356.5 11.7 353 10
2011-08-26 05:49:20 51°17.244 2°52.502 357.7 11.8 354 10.1
2011-08-26 05:49:26 51°17.263 2°52.498 357.9 11.8 353 10.2
2011-08-26 05:49:31 51°17.28 2°52.496 358.4 11.8 355 10.2
2011-08-26 05:49:36 51°17.296 2°52.493 358.8 11.8 354 10.3
2011-08-26 05:49:40 51°17.309 2°52.491 359.1 11.8 355 10.2
2011-08-26 05:49:46 51°17.328 2°52.488 358.7 11.8 353 10.4
2011-08-26 05:49:51 51°17.345 2°52.485 358.4 11.8 354 10.3
2011-08-26 05:49:56 51°17.361 2°52.482 358.6 11.8 353 10.4
2011-08-26 05:50:01 51°17.377 2°52.479 358.2 11.8 353 10.4
2011-08-26 05:50:06 51°17.394 2°52.476 357.9 11.8 353 10.3
2011-08-26 05:50:11 51°17.41 2°52.473 357.2 11.9 352 10.4
2011-08-26 05:50:16 51°17.426 2°52.47 357.3 11.8 354 10.3
2011-08-26 05:50:20 51°17.439 2°52.468 358.2 11.8 354 10.3
2011-08-26 05:50:26 51°17.459 2°52.464 358 11.8 353 10.4
2011-08-26 05:50:31 51°17.475 2°52.46 357.7 11.8 352 10.5
2011-08-26 05:50:36 51°17.491 2°52.456 357.3 11.9 352 10.4
2011-08-26 05:50:40 51°17.504 2°52.453 356.7 11.8 352 10.3
2011-08-26 05:50:46 51°17.523 2°52.45 357.1 11.8 353 10.4
2011-08-26 05:50:51 51°17.54 2°52.447 357.8 11.8 354 10.4
2011-08-26 05:50:56 51°17.556 2°52.445 358.7 11.7 356 10.4
2011-08-26 05:51:01 51°17.572 2°52.445 0.8 11.7 359 10.6
2011-08-26 05:51:06 51°17.589 2°52.446 3.8 11.7 2 10.4
2011-08-26 05:51:11 51°17.604 2°52.446 5.7 11.6 2 10.3
2011-08-26 05:51:16 51°17.621 2°52.448 6.7 11.6 4 10.5
2011-08-26 05:51:20 51°17.634 2°52.449 7.6 11.6 4 10.4
2011-08-26 05:51:26 51°17.653 2°52.452 8.5 11.6 6 10.3
2011-08-26 05:51:31 51°17.669 2°52.455 9.8 11.6 7 10.4
2011-08-26 05:51:36 51°17.685 2°52.459 11 11.6 8 10.4
2011-08-26 05:51:41 51°17.7 2°52.463 11.7 11.6 8 10.3
2011-08-26 05:51:46 51°17.716 2°52.467 12.3 11.6 9 10.6
2011-08-26 05:51:51 51°17.732 2°52.471 12.9 11.6 8 10.4
2011-08-26 05:51:56 51°17.748 2°52.475 12.8 11.5 9 10.3
2011-08-26 05:52:00 51°17.761 2°52.478 13 11.6 9 10.4
2011-08-26 05:52:06 51°17.78 2°52.482 12.6 11.6 7 10.5
2011-08-26 05:52:11 51°17.796 2°52.485 11.6 11.6 7 10.3
2011-08-26 05:52:16 51°17.812 2°52.488 11.1 11.6 7 10.4
2011-08-26 05:52:21 51°17.828 2°52.492 11 11.6 7 10.4
2011-08-26 05:52:26 51°17.844 2°52.495 11.4 11.6 7 10.4
2011-08-26 05:52:31 51°17.859 2°52.499 11.2 11.6 7 10.4
2011-08-26 05:52:36 51°17.875 2°52.502 11.1 11.6 9 10.3
2011-08-26 05:52:40 51°17.888 2°52.506 13.3 11.6 11 10.5
2011-08-26 05:52:46 51°17.907 2°52.511 13.7 11.6 9 10.5
2011-08-26 05:52:51 51°17.922 2°52.517 14 11.5 11 10.6
2011-08-26 05:52:56 51°17.938 2°52.521 14.4 11.5 11 10.6
2011-08-26 05:53:00 51°17.951 2°52.525 14.6 11.5 12 10.5
2011-08-26 05:53:06 51°17.969 2°52.533 16.6 11.5 15 10.7
2011-08-26 05:53:11 51°17.984 2°52.54 18.6 11.5 16 10.6
2011-08-26 05:53:16 51°18 2°52.548 19.7 11.4 17 10.6
2011-08-26 05:53:20 51°18.012 2°52.554 21 11.4 18 10.7
2011-08-26 05:53:26 51°18.03 2°52.564 21.6 11.5 18 10.6
2011-08-26 05:53:31 51°18.045 2°52.572 22.1 11.4 20 10.6
2011-08-26 05:53:36 51°18.059 2°52.581 23.3 11.4 21 10.7
2011-08-26 05:53:41 51°18.074 2°52.591 24.2 11.4 22 10.8
2011-08-26 05:53:46 51°18.089 2°52.601 25 11.4 23 10.7
2011-08-26 05:53:51 51°18.103 2°52.612 26.2 11.4 25 10.8
2011-08-26 05:53:56 51°18.117 2°52.622 27.6 11.4 25 10.7
2011-08-26 05:54:01 51°18.131 2°52.634 28.8 11.4 27 11
2011-08-26 05:54:06 51°18.145 2°52.646 30.7 11.4 29 10.8
2011-08-26 05:54:11 51°18.159 2°52.658 31.7 11.4 29 10.8
2011-08-26 05:54:16 51°18.172 2°52.672 32.8 11.4 31 10.9
2011-08-26 05:54:21 51°18.186 2°52.686 33.5 11.4 31 11
2011-08-26 05:54:26 51°18.199 2°52.699 33.9 11.4 33 10.7
2011-08-26 05:54:31 51°18.212 2°52.713 34.7 11.4 32 10.9
2011-08-26 05:54:36 51°18.226 2°52.726 34.6 11.4 32 10.9
2011-08-26 05:54:41 51°18.239 2°52.74 34.5 11.4 32 11
2011-08-26 05:54:46 51°18.252 2°52.754 34.3 11.4 32 11.1
2011-08-26 05:54:51 51°18.266 2°52.767 34.2 11.3 32 11.1
2011-08-26 05:54:56 51°18.279 2°52.781 35.2 11.3 34 10.9
2011-08-26 05:55:00 51°18.29 2°52.791 35.1 11.3 31 11
2011-08-26 05:55:06 51°18.306 2°52.806 33.9 11.4 31 11
2011-08-26 05:55:11 51°18.32 2°52.819 33.5 11.3 30 11.1
2011-08-26 05:55:16 51°18.333 2°52.831 32.4 11.3 29 11.2
2011-08-26 05:55:20 51°18.344 2°52.842 32.6 11.4 32 11.2
2011-08-26 05:55:26 51°18.36 2°52.858 33.9 11.4 33 11.3
2011-08-26 05:55:31 51°18.373 2°52.873 35.8 11.4 36 11.4
2011-08-26 05:55:36 51°18.386 2°52.888 37.2 11.3 36 11.3
2011-08-26 05:55:41 51°18.398 2°52.903 38.6 11.3 38 11.3
2011-08-26 05:55:46 51°18.41 2°52.919 39.3 11.3 38 11.2
2011-08-26 05:55:51 51°18.423 2°52.934 39.9 11.3 39 11.3
2011-08-26 05:55:56 51°18.435 2°52.95 40.8 11.3 40 11.3
2011-08-26 05:56:01 51°18.447 2°52.967 40.9 11.3 38 11.3
2011-08-26 05:56:06 51°18.459 2°52.983 40.7 11.3 40 11.4
2011-08-26 05:56:11 51°18.471 2°52.998 40.6 11.3 38 11.5
2011-08-26 05:56:16 51°18.483 2°53.014 40.5 11.3 39 11.3
2011-08-26 05:56:21 51°18.496 2°53.03 40.3 11.3 38 11.4
2011-08-26 05:56:26 51°18.508 2°53.045 40 11.3 38 11.4
2011-08-26 05:56:31 51°18.521 2°53.061 40 11.3 38 11.4
2011-08-26 05:56:36 51°18.533 2°53.076 39.9 11.3 38 11.4
2011-08-26 05:56:41 51°18.545 2°53.091 39.9 11.3 38 11.4
2011-08-26 05:56:46 51°18.558 2°53.107 39.8 11.4 37 11.3
2011-08-26 05:56:51 51°18.57 2°53.122 39.3 11.4 37 11.5
2011-08-26 05:56:56 51°18.583 2°53.138 39 11.3 37 11.4
2011-08-26 05:57:00 51°18.593 2°53.15 39.3 11.3 38 11.5
2011-08-26 05:57:06 51°18.608 2°53.168 40.1 11.3 39 11.4
2011-08-26 05:57:11 51°18.62 2°53.183 40.1 11.3 37 11.5
2011-08-26 05:57:16 51°18.633 2°53.198 39.4 11.3 37 11.5
2011-08-26 05:57:20 51°18.643 2°53.21 39.3 11.3 37 11.5
2011-08-26 05:57:26 51°18.658 2°53.228 39.3 11.3 38 11.5
2011-08-26 05:57:31 51°18.67 2°53.243 39.4 11.3 38 11.6
2011-08-26 05:57:36 51°18.683 2°53.258 39.6 11.3 37 11.7
2011-08-26 05:57:40 51°18.693 2°53.271 39.3 11.3 37 11.6
2011-08-26 05:57:46 51°18.708 2°53.289 38.9 11.3 36 11.8
2011-08-26 05:57:51 51°18.721 2°53.303 38.1 11.3 35 11.7
2011-08-26 05:57:56 51°18.734 2°53.316 36.9 11.3 33 11.6
2011-08-26 05:58:00 51°18.745 2°53.326 34.6 11.3 30 11.6
2011-08-26 05:58:06 51°18.761 2°53.343 34.4 11.3 32 11.6
2011-08-26 05:58:11 51°18.775 2°53.355 33.6 11.3 30 11.7
2011-08-26 05:58:16 51°18.788 2°53.368 33.3 11.4 31 11.7
2011-08-26 05:58:20 51°18.799 2°53.378 33 11.4 30 11.6
2011-08-26 05:58:26 51°18.815 2°53.393 33.1 11.4 31 11.7
2011-08-26 05:58:31 51°18.829 2°53.406 33.4 11.3 31 11.8
2011-08-26 05:58:36 51°18.842 2°53.419 33.6 11.3 31 11.8
2011-08-26 05:58:40 51°18.853 2°53.43 34.2 11.3 32 11.8
2011-08-26 05:58:46 51°18.869 2°53.446 34.2 11.4 32 11.8
2011-08-26 05:58:51 51°18.882 2°53.459 34.9 11.4 33 11.8
2011-08-26 05:58:56 51°18.896 2°53.473 35.6 11.4 34 11.8
2011-08-26 05:59:00 51°18.906 2°53.485 36.9 11.4 35 11.9
2011-08-26 05:59:06 51°18.921 2°53.503 37.6 11.4 36 11.9
2011-08-26 05:59:11 51°18.934 2°53.518 38.5 11.4 37 11.9
2011-08-26 05:59:16 51°18.946 2°53.533 38.9 11.3 37 11.9
2011-08-26 05:59:20 51°18.956 2°53.546 39.4 11.4 38 11.8
2011-08-26 05:59:26 51°18.971 2°53.564 40.1 11.4 38 11.9
2011-08-26 05:59:31 51°18.983 2°53.58 40.2 11.3 39 12
2011-08-26 05:59:36 51°18.996 2°53.596 40.6 11.3 39 12
2011-08-26 05:59:40 51°19.005 2°53.609 41.3 11.3 40 11.9
2011-08-26 05:59:46 51°19.02 2°53.628 41.9 11.3 39 12.1
2011-08-26 05:59:51 51°19.032 2°53.644 41.6 11.3 40 12
2011-08-26 05:59:56 51°19.044 2°53.66 41.6 11.3 40 12.1
2011-08-26 06:00:00 51°19.053 2°53.673 41.7 11.3 39 12.1
2011-08-26 06:00:06 51°19.068 2°53.692 41.7 11.3 40 12
2011-08-26 06:00:11 51°19.08 2°53.708 41.7 11.3 39 12.1
2011-08-26 06:00:16 51°19.092 2°53.723 41.3 11.3 38 12
2011-08-26 06:00:20 51°19.102 2°53.735 40.4 11.3 36 12.1
2011-08-26 06:00:26 51°19.118 2°53.753 38.5 11.3 34 12.1
2011-08-26 06:00:31 51°19.131 2°53.768 37.6 11.3 35 12.1
2011-08-26 06:00:36 51°19.144 2°53.781 36.4 11.4 32 12.2
2011-08-26 06:00:40 51°19.155 2°53.792 35.6 11.3 33 12.1
2011-08-26 06:00:46 51°19.17 2°53.808 35.5 11.3 32 12.2
2011-08-26 06:00:51 51°19.184 2°53.821 35.2 11.4 33 12.2
2011-08-26 06:00:56 51°19.197 2°53.835 35.6 11.4 33 12.2
2011-08-26 06:01:00 51°19.208 2°53.846 35.9 11.3 33 12.1
2011-08-26 06:01:06 51°19.223 2°53.863 36 11.3 33 12.2
2011-08-26 06:01:11 51°19.236 2°53.877 35.7 11.3 34 12.2
2011-08-26 06:01:16 51°19.249 2°53.891 37 11.3 36 12.2
2011-08-26 06:01:20 51°19.259 2°53.903 38.2 11.3 36 12.3
2011-08-26 06:01:26 51°19.274 2°53.922 38.9 11.3 38 12.3
2011-08-26 06:01:31 51°19.287 2°53.937 39.9 11.3 39 12.3
2011-08-26 06:01:36 51°19.299 2°53.953 40.7 11.3 39 12.3
2011-08-26 06:01:40 51°19.308 2°53.966 41.1 11.3 39 12.3
2011-08-26 06:01:46 51°19.323 2°53.985 41.8 11.3 41 12.3
2011-08-26 06:01:51 51°19.335 2°54.001 42 11.3 39 12.2
2011-08-26 06:01:56 51°19.347 2°54.017 41.6 11.3 39 12.2
2011-08-26 06:02:00 51°19.357 2°54.03 41.5 11.3 40 12.3
2011-08-26 06:02:06 51°19.371 2°54.049 41.7 11.3 39 12.3
2011-08-26 06:02:11 51°19.383 2°54.065 42.2 11.3 40 12.4
2011-08-26 06:02:16 51°19.396 2°54.081 41.7 11.3 39 12.3
2011-08-26 06:02:20 51°19.405 2°54.093 42.1 11.3 39 12.3
2011-08-26 06:02:26 51°19.42 2°54.113 41.6 11.3 40 12.4
2011-08-26 06:02:31 51°19.432 2°54.128 41.9 11.3 39 12.3
2011-08-26 06:02:36 51°19.444 2°54.144 42.2 11.3 40 12.4
2011-08-26 06:02:40 51°19.454 2°54.157 41.6 11.3 39 12.4
2011-08-26 06:02:46 51°19.469 2°54.176 41.6 11.3 38 12.3
2011-08-26 06:02:51 51°19.481 2°54.191 41.1 11.3 39 12.5
2011-08-26 06:02:56 51°19.493 2°54.207 40.9 11.3 38 12.4
2011-08-26 06:03:00 51°19.503 2°54.219 41.1 11.3 38 12.5
2011-08-26 06:03:06 51°19.517 2°54.238 40.7 11.3 39 12.6
2011-08-26 06:03:11 51°19.53 2°54.253 40.7 11.3 38 12.6
2011-08-26 06:03:16 51°19.542 2°54.268 40.5 11.3 38 12.5
2011-08-26 06:03:20 51°19.552 2°54.28 39.8 11.3 36 12.5
2011-08-26 06:03:26 51°19.567 2°54.298 39.4 11.3 37 12.6
2011-08-26 06:03:31 51°19.58 2°54.312 39.1 11.3 35 12.4
2011-08-26 06:03:36 51°19.593 2°54.326 38.4 11.3 34 12.6
2011-08-26 06:03:40 51°19.604 2°54.337 36.4 11.3 32 12.9
2011-08-26 06:03:46 51°19.62 2°54.353 36 11.3 32 12.6
2011-08-26 06:03:51 51°19.633 2°54.366 35.2 11.3 32 12.8
2011-08-26 06:03:56 51°19.646 2°54.38 35.7 11.3 33 12.6
2011-08-26 06:04:00 51°19.657 2°54.391 36.4 11.3 33 12.6
2011-08-26 06:04:06 51°19.672 2°54.407 36 11.3 33 12.5
2011-08-26 06:04:11 51°19.685 2°54.421 36 11.2 33 12.5
2011-08-26 06:04:16 51°19.698 2°54.435 36 11.2 33 12.7
2011-08-26 06:04:20 51°19.708 2°54.446 36.3 11.3 34 12.9
2011-08-26 06:04:26 51°19.724 2°54.462 36.3 11.3 33 13
2011-08-26 06:04:31 51°19.737 2°54.476 36.2 11.3 34 13
2011-08-26 06:04:36 51°19.75 2°54.489 36.2 11.3 32 13
2011-08-26 06:04:40 51°19.761 2°54.501 35.8 11.3 34 12.9
2011-08-26 06:04:46 51°19.776 2°54.517 36.3 11.3 33 12.8
2011-08-26 06:04:51 51°19.79 2°54.531 36.2 11.3 33 12.9
2011-08-26 06:04:56 51°19.803 2°54.544 36 11.3 33 12.9
2011-08-26 06:05:00 51°19.813 2°54.556 36 11.3 33 12.9
2011-08-26 06:05:06 51°19.829 2°54.572 35.8 11.3 34 13.1
2011-08-26 06:05:11 51°19.841 2°54.587 37.3 11.3 36 13
2011-08-26 06:05:16 51°19.854 2°54.601 37.8 11.3 35 13.2
2011-08-26 06:05:20 51°19.864 2°54.613 37.9 11.3 35 13.1
2011-08-26 06:05:26 51°19.88 2°54.63 38 11.3 36 13.3
2011-08-26 06:05:31 51°19.893 2°54.645 37.8 11.3 35 13.2
2011-08-26 06:05:36 51°19.905 2°54.66 38.2 11.3 37 13.4
2011-08-26 06:05:40 51°19.915 2°54.672 38.6 11.3 37 13.4
2011-08-26 06:05:46 51°19.93 2°54.691 39.9 11.4 39 13.5
2011-08-26 06:05:51 51°19.942 2°54.707 40.8 11.3 40 13.4
2011-08-26 06:05:56 51°19.954 2°54.724 42.5 11.3 41 13.4
2011-08-26 06:06:00 51°19.964 2°54.736 42.3 11.3 40 13.3
2011-08-26 06:06:06 51°19.978 2°54.757 42.9 11.4 42 13.3
2011-08-26 06:06:11 51°19.99 2°54.773 43.1 11.3 40 13.1
2011-08-26 06:06:16 51°20.001 2°54.79 43.2 11.3 41 13.2
2011-08-26 06:06:20 51°20.012 2°54.802 42.2 11.3 38 13.1
2011-08-26 06:06:26 51°20.026 2°54.821 41.8 11.3 40 13.2
2011-08-26 06:06:31 51°20.039 2°54.836 40.8 11.3 38 13.2
2011-08-26 06:06:36 51°20.051 2°54.852 40.7 11.3 39 13.4
2011-08-26 06:06:40 51°20.061 2°54.865 40.4 11.3 38 13.4
2011-08-26 06:06:46 51°20.075 2°54.884 41 11.4 40 13.5
2011-08-26 06:06:51 51°20.088 2°54.899 40.9 11.4 38 13.3
2011-08-26 06:06:56 51°20.1 2°54.916 41.5 11.4 41 13.5
2011-08-26 06:07:00 51°20.109 2°54.929 41.5 11.4 39 13.4
2011-08-26 06:07:06 51°20.124 2°54.949 41.8 11.4 42 13.4
2011-08-26 06:07:11 51°20.136 2°54.964 42.2 11.4 38 13.4
2011-08-26 06:07:16 51°20.148 2°54.981 41.5 11.5 40 13.5
2011-08-26 06:07:20 51°20.158 2°54.993 41.5 11.4 38 13.2
2011-08-26 06:07:26 51°20.173 2°55.013 41.7 11.4 41 13.3
2011-08-26 06:07:31 51°20.185 2°55.029 41.9 11.4 38 13.4
2011-08-26 06:07:36 51°20.197 2°55.045 41.3 11.4 41 13.5
2011-08-26 06:07:40 51°20.208 2°55.057 41.5 11.4 37 13.5
2011-08-26 06:07:46 51°20.223 2°55.076 40.5 11.4 38 13.5
2011-08-26 06:07:51 51°20.235 2°55.09 39.4 11.4 35 13.5
2011-08-26 06:07:56 51°20.248 2°55.105 38 11.4 35 13.5
2011-08-26 06:08:00 51°20.259 2°55.116 37.2 11.4 33 13.5
2011-08-26 06:08:06 51°20.275 2°55.133 36.3 11.4 34 13.5
2011-08-26 06:08:11 51°20.288 2°55.146 36.4 11.4 33 13.5
2011-08-26 06:08:16 51°20.301 2°55.161 36.3 11.4 34 13.6
2011-08-26 06:08:20 51°20.312 2°55.173 37.5 11.4 35 13.7
2011-08-26 06:08:26 51°20.327 2°55.19 37.9 11.4 36 13.6
2011-08-26 06:08:31 51°20.34 2°55.205 38.8 11.4 36 13.6
2011-08-26 06:08:36 51°20.353 2°55.22 39 11.4 37 13.7
2011-08-26 06:08:40 51°20.363 2°55.233 39.8 11.4 37 13.7
2011-08-26 06:08:46 51°20.378 2°55.251 40 11.4 39 13.7
2011-08-26 06:08:51 51°20.39 2°55.267 40.8 11.4 39 13.6
2011-08-26 06:08:56 51°20.402 2°55.283 41.5 11.4 40 13.8
2011-08-26 06:09:00 51°20.412 2°55.296 41.7 11.4 39 13.8
2011-08-26 06:09:06 51°20.427 2°55.314 41.4 11.3 38 13.8
2011-08-26 06:09:11 51°20.439 2°55.331 40.6 11.4 37 13.8
2011-08-26 06:09:16 51°20.452 2°55.346 39.3 11.4 35 13.9
2011-08-26 06:09:20 51°20.463 2°55.357 37.9 11.4 34 13.7
2011-08-26 06:09:26 51°20.478 2°55.373 37.3 11.3 34 13.8
2011-08-26 06:09:31 51°20.492 2°55.387 36.8 11.4 34 13.9
2011-08-26 06:09:36 51°20.505 2°55.4 36 11.4 30 13.7
2011-08-26 06:09:40 51°20.516 2°55.411 35.5 11.3 34 13.7
2011-08-26 06:09:46 51°20.532 2°55.427 36.4 11.3 32 13.7
2011-08-26 06:09:51 51°20.545 2°55.441 36.3 11.3 34 13.9
2011-08-26 06:09:56 51°20.557 2°55.455 36.7 11.3 35 13.9
2011-08-26 06:10:00 51°20.568 2°55.467 38.5 11.3 36 14.1
2011-08-26 06:10:06 51°20.583 2°55.484 39.1 11.3 37 14
2011-08-26 06:10:11 51°20.595 2°55.5 40.7 11.3 39 14.1
2011-08-26 06:10:16 51°20.608 2°55.515 40.7 11.3 37 14.2
2011-08-26 06:10:20 51°20.618 2°55.528 41.5 11.3 40 14.3
2011-08-26 06:10:26 51°20.632 2°55.547 41.6 11.3 38 14.2
2011-08-26 06:10:31 51°20.644 2°55.563 41.8 11.3 40 14.2
2011-08-26 06:10:36 51°20.657 2°55.579 42.3 11.4 38 14.3
2011-08-26 06:10:40 51°20.667 2°55.591 41.8 11.3 39 14.2
2011-08-26 06:10:46 51°20.681 2°55.61 41.9 11.4 39 14.2
2011-08-26 06:10:51 51°20.694 2°55.626 41.5 11.3 38 14.1
2011-08-26 06:10:56 51°20.706 2°55.642 41.8 11.3 40 14.2
2011-08-26 06:11:00 51°20.715 2°55.654 42.2 11.3 38 14.2
2011-08-26 06:11:06 51°20.73 2°55.673 42.2 11.3 39 14.1
2011-08-26 06:11:11 51°20.742 2°55.689 42.5 11.3 39 14.2
2011-08-26 06:11:16 51°20.754 2°55.704 42 11.3 38 14.2
2011-08-26 06:11:20 51°20.764 2°55.717 41.7 11.3 39 14.2
2011-08-26 06:11:26 51°20.779 2°55.735 40.8 11.3 36 14.2
2011-08-26 06:11:31 51°20.792 2°55.75 40 11.3 36 14.4
2011-08-26 06:11:36 51°20.805 2°55.765 38.6 11.3 33 14.4
2011-08-26 06:11:40 51°20.815 2°55.776 37.6 11.4 34 14.4
2011-08-26 06:11:46 51°20.832 2°55.791 36.5 11.4 32 14.4
2011-08-26 06:11:50 51°20.842 2°55.802 36 11.4 33 14.5
2011-08-26 06:11:56 51°20.859 2°55.817 35.6 11.4 30 14.5
2011-08-26 06:12:00 51°20.869 2°55.828 35.5 11.4 33 14.5
2011-08-26 06:12:06 51°20.885 2°55.844 35.8 11.4 31 14.5
2011-08-26 06:12:11 51°20.899 2°55.857 35.7 11.4 33 14.6
2011-08-26 06:12:16 51°20.912 2°55.871 36.6 11.3 34 14.5
2011-08-26 06:12:20 51°20.922 2°55.882 37.4 11.3 34 14.6
2011-08-26 06:12:26 51°20.938 2°55.9 38.2 11.3 35 14.7
2011-08-26 06:12:31 51°20.951 2°55.914 39 11.3 36 14.7
2011-08-26 06:12:36 51°20.963 2°55.929 40 11.3 37 14.6
2011-08-26 06:12:41 51°20.976 2°55.944 40.5 11.3 37 14.8
2011-08-26 06:12:46 51°20.988 2°55.96 40.7 11.3 38 14.7
2011-08-26 06:12:51 51°21 2°55.975 41.1 11.3 38 14.9
2011-08-26 06:12:56 51°21.012 2°55.991 41.4 11.2 39 14.8
2011-08-26 06:13:00 51°21.022 2°56.003 42.2 11.3 38 14.8
2011-08-26 06:13:06 51°21.037 2°56.021 41.5 11.2 38 14.8
2011-08-26 06:13:11 51°21.049 2°56.037 42 11.2 39 14.8
2011-08-26 06:13:16 51°21.062 2°56.052 41.5 11.2 37 14.8
2011-08-26 06:13:20 51°21.071 2°56.064 41.3 11.2 38 15
2011-08-26 06:13:26 51°21.086 2°56.082 41.2 11.2 36 14.9
2011-08-26 06:13:31 51°21.099 2°56.097 40.7 11.3 36 15
2011-08-26 06:13:36 51°21.112 2°56.11 39.2 11.2 34 14.9
2011-08-26 06:13:40 51°21.122 2°56.122 38.3 11.3 34 15
2011-08-26 06:13:46 51°21.138 2°56.138 36.8 11.3 31 15.1
2011-08-26 06:13:51 51°21.152 2°56.151 36.4 11.3 32 15
2011-08-26 06:13:56 51°21.165 2°56.165 36.7 11.3 32 15.1
2011-08-26 06:14:00 51°21.175 2°56.175 36.6 11.2 32 15
2011-08-26 06:14:06 51°21.191 2°56.191 36.7 11.3 33 15.1
2011-08-26 06:14:11 51°21.205 2°56.204 36.4 11.2 32 15.1
2011-08-26 06:14:16 51°21.218 2°56.218 36.6 11.2 34 15.3
2011-08-26 06:14:20 51°21.228 2°56.228 37.1 11.3 33 15.3
2011-08-26 06:14:26 51°21.244 2°56.245 37.8 11.2 35 15.2
2011-08-26 06:14:31 51°21.256 2°56.26 38.2 11.2 35 15.4
2011-08-26 06:14:36 51°21.269 2°56.275 39.5 11.2 37 15.4
2011-08-26 06:14:41 51°21.281 2°56.29 40.5 11.2 37 15.4
2011-08-26 06:14:46 51°21.293 2°56.306 42.1 11.2 41 15.4
2011-08-26 06:14:51 51°21.305 2°56.321 42.8 11.2 38 15.4
2011-08-26 06:14:56 51°21.317 2°56.337 43.1 11.2 41 15.4
2011-08-26 06:15:00 51°21.326 2°56.35 43.6 11.2 39 15.4
2011-08-26 06:15:06 51°21.34 2°56.369 43.5 11.2 41 15.5
2011-08-26 06:15:11 51°21.352 2°56.385 43.8 11.2 40 15.4
2011-08-26 06:15:16 51°21.364 2°56.401 43.6 11.2 40 15.6
2011-08-26 06:15:20 51°21.373 2°56.414 43.7 11.2 39 15.6
2011-08-26 06:15:26 51°21.388 2°56.433 43.2 11.2 39 15.5
2011-08-26 06:15:31 51°21.4 2°56.449 43.2 11.2 40 15.6
2011-08-26 06:15:36 51°21.412 2°56.464 42.9 11.2 38 15.6
2011-08-26 06:15:40 51°21.422 2°56.476 42.2 11.2 38 15.7
2011-08-26 06:15:46 51°21.437 2°56.493 41.4 11.2 36 15.7
2011-08-26 06:15:51 51°21.45 2°56.508 39.9 11.2 34 15.7
2011-08-26 06:15:56 51°21.462 2°56.522 38.8 11.2 35 15.8
2011-08-26 06:16:00 51°21.473 2°56.533 38.9 11.2 35 15.9
2011-08-26 06:16:06 51°21.488 2°56.55 38.6 11.2 33 15.9
2011-08-26 06:16:11 51°21.501 2°56.565 38.7 11.2 37 15.9
2011-08-26 06:16:16 51°21.513 2°56.579 40 11.2 35 15.9
2011-08-26 06:16:21 51°21.525 2°56.594 40 11.2 38 15.9
2011-08-26 06:16:26 51°21.538 2°56.609 41.1 11.2 36 15.8
2011-08-26 06:16:31 51°21.55 2°56.624 41.1 11.2 38 15.9
2011-08-26 06:16:36 51°21.562 2°56.64 42 11.2 39 16
2011-08-26 06:16:41 51°21.575 2°56.656 42.4 11.2 39 15.9
2011-08-26 06:16:46 51°21.586 2°56.672 43.5 11.2 40 15.9
2011-08-26 06:16:51 51°21.598 2°56.687 42.8 11.2 37 16.1
2011-08-26 06:16:56 51°21.61 2°56.703 42.2 11.2 39 16.1
2011-08-26 06:17:00 51°21.62 2°56.715 42.2 11.2 38 16.3
2011-08-26 06:17:06 51°21.635 2°56.734 42.2 11.2 39 16.2
2011-08-26 06:17:11 51°21.647 2°56.75 42.4 11.3 39 16.2
2011-08-26 06:17:16 51°21.659 2°56.765 42.4 11.2 38 16.2
2011-08-26 06:17:21 51°21.671 2°56.781 42.2 11.2 40 16.3
2011-08-26 06:17:26 51°21.684 2°56.796 42.6 11.2 37 16.3
2011-08-26 06:17:31 51°21.696 2°56.811 41.6 11.2 37 16.3
2011-08-26 06:17:36 51°21.708 2°56.826 41 11.2 36 16.5
2011-08-26 06:17:40 51°21.719 2°56.837 39.6 11.2 34 16.4
2011-08-26 06:17:46 51°21.734 2°56.854 39.2 11.2 35 16.4
2011-08-26 06:17:51 51°21.747 2°56.867 38.2 11.2 33 16.5
2011-08-26 06:17:56 51°21.76 2°56.882 38.4 11.3 36 16.6
2011-08-26 06:18:01 51°21.773 2°56.895 38.2 11.2 32 16.5
2011-08-26 06:18:06 51°21.786 2°56.91 38.1 11.2 36 16.6
2011-08-26 06:18:11 51°21.799 2°56.923 38.6 11.3 34 16.6
2011-08-26 06:18:16 51°21.811 2°56.938 39.3 11.2 37 16.6
2011-08-26 06:18:20 51°21.821 2°56.95 40.7 11.2 37 16.7
2011-08-26 06:18:26 51°21.836 2°56.968 40.8 11.2 36 16.5
2011-08-26 06:18:31 51°21.848 2°56.984 41.3 11.2 39 16.9
2011-08-26 06:18:36 51°21.861 2°56.999 41.7 11.2 37 16.7
2011-08-26 06:18:41 51°21.872 2°57.015 42.4 11.2 41 16.6
2011-08-26 06:18:46 51°21.885 2°57.03 43.4 11.2 38 16.8
2011-08-26 06:18:51 51°21.897 2°57.046 42.2 11.2 39 16.7
2011-08-26 06:18:56 51°21.908 2°57.061 42.9 11.2 38 16.9
2011-08-26 06:19:00 51°21.918 2°57.073 42.1 11.2 37 16.8
2011-08-26 06:19:06 51°21.933 2°57.091 41.7 11.2 37 17
2011-08-26 06:19:11 51°21.946 2°57.106 41.1 11.3 36 17
2011-08-26 06:19:16 51°21.958 2°57.12 40.4 11.2 36 17
2011-08-26 06:19:20 51°21.969 2°57.132 39.8 11.3 35 17.1
2011-08-26 06:19:26 51°21.984 2°57.149 39.7 11.3 35 17
2011-08-26 06:19:31 51°21.997 2°57.164 39.4 11.3 36 17
2011-08-26 06:19:36 51°22.009 2°57.178 40 11.3 35 17.1
2011-08-26 06:19:40 51°22.02 2°57.19 39.8 11.2 35 17
2011-08-26 06:19:46 51°22.035 2°57.208 40.3 11.3 36 17.1
2011-08-26 06:19:51 51°22.047 2°57.222 40.3 11.2 37 17.1
2011-08-26 06:19:56 51°22.059 2°57.238 41.5 11.3 37 17.1
2011-08-26 06:20:00 51°22.07 2°57.249 40.9 11.3 35 17.2
2011-08-26 06:20:06 51°22.084 2°57.268 40.8 11.2 39 17.2
2011-08-26 06:20:11 51°22.097 2°57.282 41.5 11.2 37 17.2
2011-08-26 06:20:16 51°22.109 2°57.298 42 11.2 40 17.3
2011-08-26 06:20:20 51°22.119 2°57.311 42.9 11.2 38 17.3
2011-08-26 06:20:26 51°22.133 2°57.33 43.2 11.1 41 17.3
2011-08-26 06:20:31 51°22.145 2°57.346 44.5 11.2 40 17.4
2011-08-26 06:20:36 51°22.157 2°57.361 43.7 11.2 39 17.3
2011-08-26 06:20:41 51°22.168 2°57.378 43.9 11.1 41 17.4
2011-08-26 06:20:46 51°22.18 2°57.393 44.3 11.2 40 17.5
2011-08-26 06:20:51 51°22.192 2°57.41 44.4 11.2 40 17.4
2011-08-26 06:20:56 51°22.204 2°57.425 44.2 11.1 40 17.4
2011-08-26 06:21:00 51°22.213 2°57.438 44 11.2 40 17.5
2011-08-26 06:21:06 51°22.228 2°57.457 43.6 11.2 39 17.5
2011-08-26 06:21:11 51°22.24 2°57.473 43.3 11.2 39 17.5
2011-08-26 06:21:16 51°22.252 2°57.488 42.9 11.2 38 17.6
2011-08-26 06:21:21 51°22.264 2°57.503 42.1 11.1 37 17.7
2011-08-26 06:21:26 51°22.277 2°57.518 41.7 11.2 37 17.6
2011-08-26 06:21:31 51°22.29 2°57.531 40.5 11.2 34 17.7
2011-08-26 06:21:36 51°22.302 2°57.546 39.5 11.2 35 17.6
2011-08-26 06:21:40 51°22.313 2°57.557 39.1 11.2 34 17.7
2011-08-26 06:21:46 51°22.328 2°57.573 38.1 11.2 34 17.7
2011-08-26 06:21:51 51°22.341 2°57.588 38.9 11.2 36 17.8
2011-08-26 06:21:56 51°22.354 2°57.601 38.6 11.3 33 17.6
2011-08-26 06:22:01 51°22.367 2°57.616 38.6 11.2 36 17.8
2011-08-26 06:22:06 51°22.38 2°57.63 39 11.3 34 17.6
2011-08-26 06:22:11 51°22.392 2°57.644 38.6 11.2 35 17.5
2011-08-26 06:22:16 51°22.405 2°57.658 39.1 11.3 35 17.7
2011-08-26 06:22:20 51°22.416 2°57.669 38.4 11.2 33 17.8
2011-08-26 06:22:26 51°22.431 2°57.686 39 11.2 36 17.9
2011-08-26 06:22:31 51°22.444 2°57.7 39.3 11.2 34 18
2011-08-26 06:22:36 51°22.456 2°57.715 38.9 11.2 36 17.9
2011-08-26 06:22:40 51°22.467 2°57.726 40.2 11.2 36 18
2011-08-26 06:22:46 51°22.482 2°57.744 40.1 11.2 37 18.1
2011-08-26 06:22:51 51°22.494 2°57.759 40.7 11.2 37 18
2011-08-26 06:22:56 51°22.506 2°57.774 41 11.3 37 17.7
2011-08-26 06:23:00 51°22.516 2°57.786 41.2 11.2 39 17.8
2011-08-26 06:23:06 51°22.531 2°57.805 42.2 11.2 39 17.9
2011-08-26 06:23:11 51°22.543 2°57.821 42.9 11.2 41 18.1
2011-08-26 06:23:16 51°22.554 2°57.838 44 11.2 41 17.8
2011-08-26 06:23:20 51°22.564 2°57.85 44.1 11.2 40 17.9
2011-08-26 06:23:26 51°22.578 2°57.87 44.1 11.2 42 17.7
2011-08-26 06:23:31 51°22.59 2°57.886 44.4 11.2 40 18
2011-08-26 06:23:36 51°22.602 2°57.902 44 11.2 41 17.8
2011-08-26 06:23:41 51°22.613 2°57.919 44.2 11.2 41 17.6
2011-08-26 06:23:46 51°22.625 2°57.935 43.9 11.2 39 18
2011-08-26 06:23:51 51°22.637 2°57.95 43.2 11.2 40 17.9
2011-08-26 06:23:56 51°22.65 2°57.966 42.9 11.3 39 18
2011-08-26 06:24:00 51°22.659 2°57.978 42.2 11.2 39 18.1
2011-08-26 06:24:06 51°22.674 2°57.997 42.2 11.2 39 17.7
2011-08-26 06:24:11 51°22.686 2°58.012 42.1 11.3 36 18
2011-08-26 06:24:16 51°22.699 2°58.026 40.7 11.2 36 17.8
2011-08-26 06:24:20 51°22.709 2°58.038 40.6 11.3 37 18.1
2011-08-26 06:24:26 51°22.725 2°58.055 39.4 11.3 33 18.1
2011-08-26 06:24:31 51°22.737 2°58.07 38.6 11.2 37 18
2011-08-26 06:24:36 51°22.75 2°58.083 39.4 11.3 34 18.1
2011-08-26 06:24:40 51°22.761 2°58.094 38.2 11.2 34 17.9
2011-08-26 06:24:46 51°22.776 2°58.112 39 11.2 36 18.1
2011-08-26 06:24:51 51°22.789 2°58.125 38.6 11.3 33 18
2011-08-26 06:24:56 51°22.802 2°58.14 38.8 11.2 36 18.1
2011-08-26 06:25:01 51°22.815 2°58.155 39.3 11.2 35 18.2
2011-08-26 06:25:06 51°22.827 2°58.169 39.7 11.2 36 18.2
2011-08-26 06:25:11 51°22.84 2°58.184 39.6 11.2 35 18.3
2011-08-26 06:25:16 51°22.852 2°58.199 39.8 11.2 37 18
2011-08-26 06:25:20 51°22.862 2°58.211 40.7 11.2 37 18.3
2011-08-26 06:25:26 51°22.877 2°58.229 41.2 11.2 38 18.2
2011-08-26 06:25:31 51°22.889 2°58.245 41.6 11.2 38 18.4
2011-08-26 06:25:36 51°22.901 2°58.26 41.8 11.2 40 18.3
2011-08-26 06:25:41 51°22.913 2°58.276 42.6 11.2 40 18.5
2011-08-26 06:25:46 51°22.925 2°58.292 42.9 11.2 40 18.5
2011-08-26 06:25:51 51°22.937 2°58.309 43.7 11.2 42 18.5
2011-08-26 06:25:56 51°22.949 2°58.325 44.1 11.3 40 18.6
2011-08-26 06:26:01 51°22.961 2°58.341 43.7 11.2 41 18.6
2011-08-26 06:26:06 51°22.972 2°58.357 43.9 11.2 40 18.6
2011-08-26 06:26:11 51°22.984 2°58.373 43.7 11.3 40 18.6
2011-08-26 06:26:16 51°22.996 2°58.39 43.9 11.2 41 18.6
2011-08-26 06:26:21 51°23.007 2°58.406 44.4 11.2 41 18.6
2011-08-26 06:26:26 51°23.019 2°58.422 44 11.3 40 18.6
2011-08-26 06:26:31 51°23.032 2°58.438 43.4 11.3 39 18.9
2011-08-26 06:26:36 51°23.044 2°58.454 43 11.2 39 18.7
2011-08-26 06:26:40 51°23.054 2°58.466 42.5 11.3 38 18.8
2011-08-26 06:26:46 51°23.068 2°58.484 42 11.3 36 18.6
2011-08-26 06:26:51 51°23.081 2°58.498 40.4 11.2 35 18.7
2011-08-26 06:26:56 51°23.094 2°58.512 39.5 11.2 35 18.7
2011-08-26 06:27:00 51°23.104 2°58.523 39.2 11.3 34 18.9
2011-08-26 06:27:06 51°23.12 2°58.54 38.4 11.2 34 18.8
2011-08-26 06:27:11 51°23.133 2°58.554 38.1 11.2 34 18.8
2011-08-26 06:27:16 51°23.145 2°58.568 38.8 11.3 35 18.8
2011-08-26 06:27:20 51°23.156 2°58.579 38.8 11.2 34 18.8
2011-08-26 06:27:26 51°23.171 2°58.596 38.6 11.3 35 18.9
2011-08-26 06:27:31 51°23.184 2°58.611 39 11.3 35 18.8
2011-08-26 06:27:36 51°23.197 2°58.625 38.7 11.3 35 18.9
2011-08-26 06:27:41 51°23.209 2°58.64 39 11.3 36 18.9
2011-08-26 06:27:46 51°23.222 2°58.655 39.4 11.3 36 18.8
2011-08-26 06:27:51 51°23.234 2°58.67 40 11.3 38 18.9
2011-08-26 06:27:56 51°23.246 2°58.686 41.3 11.4 39 18.8
2011-08-26 06:28:00 51°23.256 2°58.699 42.5 11.4 40 18.9
2011-08-26 06:28:06 51°23.271 2°58.718 42.6 11.3 39 18.9
2011-08-26 06:28:11 51°23.283 2°58.734 42.6 11.4 40 18.9
2011-08-26 06:28:16 51°23.294 2°58.751 43.4 11.4 41 19
2011-08-26 06:28:21 51°23.307 2°58.767 43.6 11.4 40 19.1
2011-08-26 06:28:26 51°23.318 2°58.784 43.7 11.3 42 19
2011-08-26 06:28:31 51°23.33 2°58.8 44.3 11.3 40 18.9
2011-08-26 06:28:36 51°23.342 2°58.817 44 11.3 41 18.9
2011-08-26 06:28:40 51°23.352 2°58.829 43.6 11.3 40 18.9
2011-08-26 06:28:46 51°23.366 2°58.848 43 11.3 39 18.6
2011-08-26 06:28:51 51°23.379 2°58.864 42.7 11.3 39 18.6
2011-08-26 06:28:56 51°23.391 2°58.879 42.2 11.3 38 18.4
2011-08-26 06:29:01 51°23.403 2°58.895 41.5 11.3 38 18.4
2011-08-26 06:29:06 51°23.416 2°58.909 40.8 11.3 36 18.2
2011-08-26 06:29:11 51°23.429 2°58.924 39.8 11.3 35 18.1
2011-08-26 06:29:16 51°23.442 2°58.938 39.3 11.3 35 18.1
2011-08-26 06:29:20 51°23.452 2°58.949 38.6 11.3 35 18.2
2011-08-26 06:29:26 51°23.467 2°58.967 38.7 11.3 35 18
2011-08-26 06:29:31 51°23.48 2°58.981 39 11.3 35 18
2011-08-26 06:29:36 51°23.493 2°58.996 39.2 11.3 36 17.6
2011-08-26 06:29:41 51°23.505 2°59.01 39.3 11.3 36 18
2011-08-26 06:29:46 51°23.518 2°59.025 40 11.3 37 17.8
2011-08-26 06:29:51 51°23.53 2°59.04 40.2 11.3 37 18
2011-08-26 06:29:56 51°23.543 2°59.055 40.2 11.3 36 17.6
2011-08-26 06:30:00 51°23.553 2°59.067 40 11.3 35 17.7
2011-08-26 06:30:06 51°23.568 2°59.084 39.2 11.2 35 17.7
2011-08-26 06:30:11 51°23.58 2°59.099 39.6 11.2 36 17.6
2011-08-26 06:30:16 51°23.593 2°59.113 40 11.2 35 17.7
2011-08-26 06:30:21 51°23.606 2°59.127 39.6 11.2 35 17.6
2011-08-26 06:30:26 51°23.619 2°59.141 39.2 11.2 34 17.6
2011-08-26 06:30:31 51°23.631 2°59.155 39.2 11.2 35 17.6
2011-08-26 06:30:36 51°23.644 2°59.17 39.8 11.2 36 17.5
2011-08-26 06:30:41 51°23.656 2°59.185 40.7 11.2 37 17.6
2011-08-26 06:30:46 51°23.668 2°59.201 41.3 11.1 38 17.5
2011-08-26 06:30:51 51°23.681 2°59.216 42 11.2 39 17.5
2011-08-26 06:30:56 51°23.692 2°59.232 42.4 11.1 40 17.4
2011-08-26 06:31:00 51°23.702 2°59.245 43.6 11.2 42 17.4
2011-08-26 06:31:06 51°23.716 2°59.265 44.3 11.2 41 17.2
2011-08-26 06:31:11 51°23.727 2°59.281 44.1 11.2 42 17.2
2011-08-26 06:31:16 51°23.739 2°59.298 44.1 11.3 41 17.2
2011-08-26 06:31:20 51°23.748 2°59.311 44 11.4 41 17.3
2011-08-26 06:31:26 51°23.763 2°59.331 43.5 11.4 41 17.4
2011-08-26 06:31:31 51°23.775 2°59.348 43.3 11.3 41 17.3
2011-08-26 06:31:36 51°23.787 2°59.364 43.3 11.4 41 17.3
2011-08-26 06:31:40 51°23.796 2°59.378 43.2 11.4 41 17.3
2011-08-26 06:31:46 51°23.811 2°59.397 43.1 11.4 40 17.2
2011-08-26 06:31:51 51°23.823 2°59.414 42.6 11.4 40 17.3
2011-08-26 06:31:56 51°23.835 2°59.429 42.2 11.4 39 17.3
2011-08-26 06:32:00 51°23.845 2°59.442 41.5 11.4 38 17.2
2011-08-26 06:32:06 51°23.86 2°59.46 40.8 11.4 37 17.1
2011-08-26 06:32:11 51°23.872 2°59.475 39.6 11.4 37 17.2
2011-08-26 06:32:16 51°23.885 2°59.49 39.4 11.4 36 17.1
2011-08-26 06:32:21 51°23.898 2°59.505 38.8 11.4 36 17.1
2011-08-26 06:32:26 51°23.911 2°59.52 38.6 11.4 36 17.1
2011-08-26 06:32:31 51°23.923 2°59.535 38.4 11.4 36 17
2011-08-26 06:32:36 51°23.936 2°59.55 39 11.4 37 16.9
2011-08-26 06:32:41 51°23.949 2°59.565 38.9 11.4 36 17
2011-08-26 06:32:46 51°23.962 2°59.58 38.8 11.4 37 17
2011-08-26 06:32:51 51°23.974 2°59.595 39.2 11.4 38 16.9
2011-08-26 06:32:56 51°23.987 2°59.611 39.7 11.4 37 16.9
2011-08-26 06:33:00 51°23.997 2°59.623 40 11.4 38 16.8
2011-08-26 06:33:06 51°24.012 2°59.642 40.1 11.5 38 16.9
2011-08-26 06:33:11 51°24.024 2°59.659 40.8 11.4 41 16.9
2011-08-26 06:33:16 51°24.035 2°59.676 42.9 11.4 42 16.8
2011-08-26 06:33:20 51°24.045 2°59.69 43.8 11.4 43 16.9
2011-08-26 06:33:26 51°24.058 2°59.711 45 11.4 44 16.7
2011-08-26 06:33:31 51°24.07 2°59.729 45.9 11.4 44 16.6
2011-08-26 06:33:36 51°24.081 2°59.747 46.3 11.4 46 16.6
2011-08-26 06:33:41 51°24.091 2°59.766 47.3 11.4 47 16.6
2011-08-26 06:33:46 51°24.102 2°59.784 48 11.4 47 16.5
2011-08-26 06:33:51 51°24.113 2°59.803 48.9 11.4 49 16.5
2011-08-26 06:33:56 51°24.123 2°59.822 49.2 11.4 47 16.2
2011-08-26 06:34:00 51°24.132 2°59.836 48.2 11.4 46 16.7
2011-08-26 06:34:06 51°24.146 2°59.858 47.3 11.4 45 16.6
2011-08-26 06:34:11 51°24.157 2°59.875 46.6 11.4 44 16.4
2011-08-26 06:34:16 51°24.168 2°59.893 46 11.5 45 16.3
2011-08-26 06:34:20 51°24.177 2°59.908 45.7 11.5 44 16.4
2011-08-26 06:34:26 51°24.191 2°59.929 45.4 11.5 44 16.4
2011-08-26 06:34:31 51°24.203 2°59.947 45.1 11.6 44 16.3
2011-08-26 06:34:36 51°24.214 2°59.965 45 11.6 44 16.3
2011-08-26 06:34:41 51°24.226 2°59.983 45 11.6 44 16.2
2011-08-26 06:34:46 51°24.237 3°0.001 45.6 11.6 45 16.2
2011-08-26 06:34:51 51°24.249 3°0.019 46.1 11.6 45 16.2
2011-08-26 06:34:56 51°24.26 3°0.037 46.5 11.5 46 16
2011-08-26 06:35:01 51°24.27 3°0.056 47.6 11.5 47 16.2
2011-08-26 06:35:06 51°24.282 3°0.074 48.1 11.5 46 16
2011-08-26 06:35:11 51°24.292 3°0.093 48 11.5 47 16.1
2011-08-26 06:35:16 51°24.303 3°0.112 48 11.5 47 16.1
2011-08-26 06:35:21 51°24.314 3°0.13 48 11.5 47 16
2011-08-26 06:35:26 51°24.325 3°0.149 48.1 11.6 47 16
2011-08-26 06:35:31 51°24.336 3°0.168 48.4 11.6 47 16
2011-08-26 06:35:36 51°24.347 3°0.187 48.4 11.6 47 16
2011-08-26 06:35:40 51°24.356 3°0.202 48 11.6 45 15.9
2011-08-26 06:35:46 51°24.37 3°0.223 46.6 11.6 45 15.9
2011-08-26 06:35:51 51°24.381 3°0.241 46.2 11.6 44 16
2011-08-26 06:35:56 51°24.393 3°0.259 45.8 11.6 44 15.9
2011-08-26 06:36:00 51°24.402 3°0.273 45.3 11.5 44 15.9
2011-08-26 06:36:06 51°24.416 3°0.294 45 11.6 42 15.8
2011-08-26 06:36:11 51°24.428 3°0.311 44 11.6 42 15.8
2011-08-26 06:36:16 51°24.44 3°0.328 43.6 11.5 42 15.7
2011-08-26 06:36:21 51°24.452 3°0.345 43.6 11.5 40 15.6
2011-08-26 06:36:26 51°24.464 3°0.361 42.7 11.5 41 15.6
2011-08-26 06:36:31 51°24.477 3°0.378 42.6 11.5 40 15.7
2011-08-26 06:36:36 51°24.489 3°0.395 42 11.5 40 15.8
2011-08-26 06:36:40 51°24.498 3°0.408 42.3 11.5 41 15.8
2011-08-26 06:36:46 51°24.513 3°0.428 42.8 11.5 41 15.8
2011-08-26 06:36:51 51°24.525 3°0.445 43.5 11.5 42 15.9
2011-08-26 06:36:56 51°24.537 3°0.462 43.9 11.5 42 15.9
2011-08-26 06:37:01 51°24.548 3°0.48 43.9 11.5 43 16
2011-08-26 06:37:06 51°24.56 3°0.498 44.9 11.6 44 16.2
2011-08-26 06:37:11 51°24.571 3°0.516 45.6 11.6 45 16.5
2011-08-26 06:37:16 51°24.582 3°0.534 46.2 11.6 46 17.2
2011-08-26 06:37:21 51°24.594 3°0.552 47 11.6 45 18.6
2011-08-26 06:37:26 51°24.605 3°0.57 46.9 11.6 44 19.2
2011-08-26 06:37:31 51°24.617 3°0.588 46.5 11.6 44 20.1
2011-08-26 06:37:36 51°24.628 3°0.606 45.9 11.7 43 20
2011-08-26 06:37:41 51°24.64 3°0.624 45.3 11.7 43 19.5
2011-08-26 06:37:46 51°24.652 3°0.642 45.1 11.7 42 19.5
2011-08-26 06:37:51 51°24.664 3°0.659 44.7 11.7 43 19.6
2011-08-26 06:37:56 51°24.676 3°0.676 44.2 11.7 42 19.2
2011-08-26 06:38:00 51°24.685 3°0.691 45.1 11.7 45 19.4
2011-08-26 06:38:06 51°24.699 3°0.713 46.7 11.7 45 19.3
2011-08-26 06:38:11 51°24.71 3°0.732 47 11.7 46 19.4
2011-08-26 06:38:16 51°24.721 3°0.752 48.3 11.7 48 19.3
2011-08-26 06:38:20 51°24.73 3°0.767 49.4 11.7 48 19.6
2011-08-26 06:38:26 51°24.743 3°0.791 50.2 11.8 49 19.4
2011-08-26 06:38:31 51°24.753 3°0.811 51.1 11.8 50 19.2
2011-08-26 06:38:36 51°24.764 3°0.831 52.1 11.8 52 19.5
2011-08-26 06:38:40 51°24.772 3°0.847 52.7 11.8 51 19.6
2011-08-26 06:38:46 51°24.784 3°0.872 52.8 11.8 52 19.6
2011-08-26 06:38:51 51°24.794 3°0.892 53.2 11.7 51 19.5
2011-08-26 06:38:56 51°24.805 3°0.912 52.2 11.7 49 19.6
2011-08-26 06:39:01 51°24.816 3°0.931 50.9 11.7 48 19.3
2011-08-26 06:39:06 51°24.827 3°0.951 50.2 11.7 48 19
2011-08-26 06:39:11 51°24.838 3°0.969 48.7 11.7 45 18.6
2011-08-26 06:39:16 51°24.85 3°0.987 47.3 11.7 45 17.7
2011-08-26 06:39:20 51°24.859 3°1.001 45.8 11.7 42 17.5
2011-08-26 06:39:26 51°24.874 3°1.022 44.1 11.7 41 17.5
2011-08-26 06:39:31 51°24.886 3°1.038 42.9 11.6 40 17.2
2011-08-26 06:39:36 51°24.899 3°1.054 42.1 11.7 38 17.1
2011-08-26 06:39:41 51°24.912 3°1.07 40.3 11.8 36 16.7
2011-08-26 06:39:46 51°24.925 3°1.085 39 11.7 37 16.6
2011-08-26 06:39:51 51°24.939 3°1.1 38.9 11.8 36 16.5
2011-08-26 06:39:56 51°24.952 3°1.115 38 11.8 35 16.1
2011-08-26 06:40:00 51°24.963 3°1.127 37.7 11.8 36 15.8
2011-08-26 06:40:06 51°24.979 3°1.146 38.1 11.8 35 15.7
2011-08-26 06:40:11 51°24.992 3°1.161 38.3 11.8 36 15.5
2011-08-26 06:40:16 51°25.005 3°1.176 38.5 11.8 36 15.3
2011-08-26 06:40:21 51°25.018 3°1.192 38.8 11.8 36 15.2
2011-08-26 06:40:26 51°25.031 3°1.208 39.4 11.8 38 14.9
2011-08-26 06:40:31 51°25.044 3°1.224 40.1 11.8 38 4.8
2011-08-26 06:40:36 51°25.056 3°1.241 40.7 11.7 39 14.5
2011-08-26 06:40:41 51°25.069 3°1.257 41.2 11.7 41 14.3
2011-08-26 06:40:46 51°25.081 3°1.275 42.9 11.7 42 14.3
2011-08-26 06:40:51 51°25.093 3°1.292 42.8 11.7 39 14.3
2011-08-26 06:40:56 51°25.106 3°1.308 42 11.7 40 14.2
2011-08-26 06:41:01 51°25.118 3°1.325 42.1 11.7 40 14.2
2011-08-26 06:41:06 51°25.13 3°1.342 42.5 11.7 41 14
2011-08-26 06:41:11 51°25.143 3°1.359 43.1 11.7 41 14
2011-08-26 06:41:16 51°25.155 3°1.376 43.4 11.6 42 13.8
2011-08-26 06:41:21 51°25.167 3°1.394 43.8 11.6 42 14
2011-08-26 06:41:26 51°25.178 3°1.411 43.9 11.6 43 14
2011-08-26 06:41:31 51°25.19 3°1.428 44.4 11.5 43 13.8
2011-08-26 06:41:36 51°25.202 3°1.446 44.2 11.6 42 13.7
2011-08-26 06:41:41 51°25.214 3°1.462 43 11.5 40 13.7
2011-08-26 06:41:46 51°25.227 3°1.478 41.7 11.5 38 13.7
2011-08-26 06:41:51 51°25.239 3°1.493 40.2 11.5 36 13.6